sensor_id;sensor_type;location;lat;lon;timestamp;P1;durP1;ratioP1;P2;durP2;ratioP2
20101;SDS011;10210;52.284;9.892;2024-02-14T00:00:00;7.33;;;2.23;;
20101;SDS011;10210;52.284;9.892;2024-02-14T00:02:27;6.87;;;2.20;;
20101;SDS011;10210;52.284;9.892;2024-02-14T00:04:53;6.50;;;2.43;;
20101;SDS011;10210;52.284;9.892;2024-02-14T00:07:19;6.43;;;2.40;;
20101;SDS011;10210;52.284;9.892;2024-02-14T00:09:45;5.67;;;2.10;;
20101;SDS011;10210;52.284;9.892;2024-02-14T00:12:11;4.67;;;2.00;;
20101;SDS011;10210;52.284;9.892;2024-02-14T00:14:37;6.10;;;2.30;;
20101;SDS011;10210;52.284;9.892;2024-02-14T00:17:04;7.13;;;2.30;;
20101;SDS011;10210;52.284;9.892;2024-02-14T00:19:31;5.47;;;2.10;;
20101;SDS011;10210;52.284;9.892;2024-02-14T00:21:57;10.03;;;2.10;;
20101;SDS011;10210;52.284;9.892;2024-02-14T00:24:23;4.43;;;2.00;;
20101;SDS011;10210;52.284;9.892;2024-02-14T00:26:53;5.87;;;2.30;;
20101;SDS011;10210;52.284;9.892;2024-02-14T00:29:19;5.30;;;2.03;;
20101;SDS011;10210;52.284;9.892;2024-02-14T00:31:44;5.80;;;2.07;;
20101;SDS011;10210;52.284;9.892;2024-02-14T00:34:10;5.90;;;2.20;;
20101;SDS011;10210;52.284;9.892;2024-02-14T00:36:36;5.00;;;2.00;;
20101;SDS011;10210;52.284;9.892;2024-02-14T00:39:01;7.07;;;2.13;;
20101;SDS011;10210;52.284;9.892;2024-02-14T00:41:27;5.07;;;2.03;;
20101;SDS011;10210;52.284;9.892;2024-02-14T00:43:55;4.50;;;2.03;;
20101;SDS011;10210;52.284;9.892;2024-02-14T00:46:21;6.07;;;2.03;;
20101;SDS011;10210;52.284;9.892;2024-02-14T00:48:47;5.50;;;2.20;;
20101;SDS011;10210;52.284;9.892;2024-02-14T00:51:13;7.17;;;2.20;;
20101;SDS011;10210;52.284;9.892;2024-02-14T00:53:39;5.67;;;2.30;;
20101;SDS011;10210;52.284;9.892;2024-02-14T00:56:04;5.17;;;2.60;;
20101;SDS011;10210;52.284;9.892;2024-02-14T00:58:31;5.87;;;2.40;;
20101;SDS011;10210;52.284;9.892;2024-02-14T01:00:56;4.23;;;2.17;;
20101;SDS011;10210;52.284;9.892;2024-02-14T01:03:22;6.57;;;2.30;;
20101;SDS011;10210;52.284;9.892;2024-02-14T01:05:48;6.53;;;2.10;;
20101;SDS011;10210;52.284;9.892;2024-02-14T01:08:14;8.70;;;2.30;;
20101;SDS011;10210;52.284;9.892;2024-02-14T01:10:40;6.77;;;2.30;;
20101;SDS011;10210;52.284;9.892;2024-02-14T01:13:06;6.23;;;2.37;;
20101;SDS011;10210;52.284;9.892;2024-02-14T01:15:31;6.50;;;2.30;;
20101;SDS011;10210;52.284;9.892;2024-02-14T01:17:58;7.40;;;2.20;;
20101;SDS011;10210;52.284;9.892;2024-02-14T01:20:24;5.83;;;2.40;;
20101;SDS011;10210;52.284;9.892;2024-02-14T01:22:49;4.70;;;1.90;;
20101;SDS011;10210;52.284;9.892;2024-02-14T01:25:15;4.87;;;1.97;;
20101;SDS011;10210;52.284;9.892;2024-02-14T01:27:41;7.87;;;2.20;;
20101;SDS011;10210;52.284;9.892;2024-02-14T01:30:09;6.57;;;2.43;;
20101;SDS011;10210;52.284;9.892;2024-02-14T01:32:36;5.97;;;2.27;;
20101;SDS011;10210;52.284;9.892;2024-02-14T01:35:02;7.83;;;2.70;;
20101;SDS011;10210;52.284;9.892;2024-02-14T01:37:30;6.43;;;2.30;;
20101;SDS011;10210;52.284;9.892;2024-02-14T01:39:55;9.93;;;2.60;;
20101;SDS011;10210;52.284;9.892;2024-02-14T01:42:21;7.83;;;2.27;;
20101;SDS011;10210;52.284;9.892;2024-02-14T01:44:47;7.40;;;2.20;;
20101;SDS011;10210;52.284;9.892;2024-02-14T01:47:13;7.60;;;2.50;;
20101;SDS011;10210;52.284;9.892;2024-02-14T01:49:39;5.40;;;2.33;;
20101;SDS011;10210;52.284;9.892;2024-02-14T01:52:09;5.30;;;2.10;;
20101;SDS011;10210;52.284;9.892;2024-02-14T01:54:35;7.27;;;2.63;;
20101;SDS011;10210;52.284;9.892;2024-02-14T01:57:01;5.93;;;2.10;;
20101;SDS011;10210;52.284;9.892;2024-02-14T01:59:28;8.83;;;2.50;;
20101;SDS011;10210;52.284;9.892;2024-02-14T02:01:55;7.37;;;2.40;;
20101;SDS011;10210;52.284;9.892;2024-02-14T02:04:21;7.73;;;2.40;;
20101;SDS011;10210;52.284;9.892;2024-02-14T02:06:46;7.10;;;2.43;;
20101;SDS011;10210;52.284;9.892;2024-02-14T02:09:12;8.30;;;2.63;;
20101;SDS011;10210;52.284;9.892;2024-02-14T02:11:48;8.93;;;2.80;;
20101;SDS011;10210;52.284;9.892;2024-02-14T02:14:15;8.47;;;2.70;;
20101;SDS011;10210;52.284;9.892;2024-02-14T02:16:41;9.07;;;2.60;;
20101;SDS011;10210;52.284;9.892;2024-02-14T02:19:09;9.93;;;3.17;;
20101;SDS011;10210;52.284;9.892;2024-02-14T02:21:35;8.60;;;2.73;;
20101;SDS011;10210;52.284;9.892;2024-02-14T02:24:01;8.60;;;3.00;;
20101;SDS011;10210;52.284;9.892;2024-02-14T02:26:27;9.10;;;2.83;;
20101;SDS011;10210;52.284;9.892;2024-02-14T02:28:53;8.93;;;3.00;;
20101;SDS011;10210;52.284;9.892;2024-02-14T02:31:19;9.30;;;3.10;;
20101;SDS011;10210;52.284;9.892;2024-02-14T02:33:45;9.97;;;3.30;;
20101;SDS011;10210;52.284;9.892;2024-02-14T02:36:12;10.83;;;3.33;;
20101;SDS011;10210;52.284;9.892;2024-02-14T02:38:38;10.23;;;3.33;;
20101;SDS011;10210;52.284;9.892;2024-02-14T02:41:05;9.40;;;3.43;;
20101;SDS011;10210;52.284;9.892;2024-02-14T02:43:31;11.23;;;3.10;;
20101;SDS011;10210;52.284;9.892;2024-02-14T02:45:58;9.93;;;3.20;;
20101;SDS011;10210;52.284;9.892;2024-02-14T02:48:24;8.00;;;2.87;;
20101;SDS011;10210;52.284;9.892;2024-02-14T02:50:50;11.67;;;3.77;;
20101;SDS011;10210;52.284;9.892;2024-02-14T02:53:16;12.10;;;3.60;;
20101;SDS011;10210;52.284;9.892;2024-02-14T02:55:43;11.10;;;3.40;;
20101;SDS011;10210;52.284;9.892;2024-02-14T02:58:09;13.37;;;3.33;;
20101;SDS011;10210;52.284;9.892;2024-02-14T03:00:35;10.87;;;3.47;;
20101;SDS011;10210;52.284;9.892;2024-02-14T03:03:01;9.73;;;3.33;;
20101;SDS011;10210;52.284;9.892;2024-02-14T03:05:29;11.17;;;3.40;;
20101;SDS011;10210;52.284;9.892;2024-02-14T03:07:58;8.27;;;3.20;;
20101;SDS011;10210;52.284;9.892;2024-02-14T03:10:24;9.77;;;3.40;;
20101;SDS011;10210;52.284;9.892;2024-02-14T03:12:50;10.57;;;3.30;;
20101;SDS011;10210;52.284;9.892;2024-02-14T03:15:17;9.83;;;3.50;;
20101;SDS011;10210;52.284;9.892;2024-02-14T03:17:44;8.73;;;3.20;;
20101;SDS011;10210;52.284;9.892;2024-02-14T03:20:11;8.47;;;3.03;;
20101;SDS011;10210;52.284;9.892;2024-02-14T03:22:37;9.73;;;3.33;;
20101;SDS011;10210;52.284;9.892;2024-02-14T03:25:09;9.87;;;2.93;;
20101;SDS011;10210;52.284;9.892;2024-02-14T03:27:41;9.70;;;3.30;;
20101;SDS011;10210;52.284;9.892;2024-02-14T03:30:10;13.27;;;3.50;;
20101;SDS011;10210;52.284;9.892;2024-02-14T03:32:37;8.73;;;3.30;;
20101;SDS011;10210;52.284;9.892;2024-02-14T03:35:03;9.17;;;3.10;;
20101;SDS011;10210;52.284;9.892;2024-02-14T03:37:29;9.50;;;3.30;;
20101;SDS011;10210;52.284;9.892;2024-02-14T03:39:57;10.43;;;3.20;;
20101;SDS011;10210;52.284;9.892;2024-02-14T03:42:22;9.47;;;3.10;;
20101;SDS011;10210;52.284;9.892;2024-02-14T03:44:48;9.47;;;3.00;;
20101;SDS011;10210;52.284;9.892;2024-02-14T03:47:14;12.53;;;3.17;;
20101;SDS011;10210;52.284;9.892;2024-02-14T03:49:39;9.70;;;3.20;;
20101;SDS011;10210;52.284;9.892;2024-02-14T03:52:06;10.33;;;3.13;;
20101;SDS011;10210;52.284;9.892;2024-02-14T03:54:36;8.20;;;2.70;;
20101;SDS011;10210;52.284;9.892;2024-02-14T03:57:02;10.80;;;3.00;;
20101;SDS011;10210;52.284;9.892;2024-02-14T03:59:30;9.87;;;3.13;;
20101;SDS011;10210;52.284;9.892;2024-02-14T04:01:55;11.60;;;3.50;;
20101;SDS011;10210;52.284;9.892;2024-02-14T04:04:23;12.90;;;3.53;;
20101;SDS011;10210;52.284;9.892;2024-02-14T04:06:48;10.03;;;3.20;;
20101;SDS011;10210;52.284;9.892;2024-02-14T04:09:14;9.97;;;3.47;;
20101;SDS011;10210;52.284;9.892;2024-02-14T04:11:39;8.57;;;3.00;;
20101;SDS011;10210;52.284;9.892;2024-02-14T04:14:05;10.50;;;3.33;;
20101;SDS011;10210;52.284;9.892;2024-02-14T04:16:31;10.20;;;3.30;;
20101;SDS011;10210;52.284;9.892;2024-02-14T04:18:57;8.87;;;3.17;;
20101;SDS011;10210;52.284;9.892;2024-02-14T04:21:22;9.40;;;3.20;;
20101;SDS011;10210;52.284;9.892;2024-02-14T04:23:48;9.37;;;2.93;;
20101;SDS011;10210;52.284;9.892;2024-02-14T04:26:20;8.63;;;3.10;;
20101;SDS011;10210;52.284;9.892;2024-02-14T04:28:46;9.10;;;3.47;;
20101;SDS011;10210;52.284;9.892;2024-02-14T04:31:12;8.77;;;2.97;;
20101;SDS011;10210;52.284;9.892;2024-02-14T04:33:37;10.70;;;3.00;;
20101;SDS011;10210;52.284;9.892;2024-02-14T04:36:05;9.17;;;3.17;;
20101;SDS011;10210;52.284;9.892;2024-02-14T04:38:31;8.73;;;3.17;;
20101;SDS011;10210;52.284;9.892;2024-02-14T04:40:57;7.57;;;2.97;;
20101;SDS011;10210;52.284;9.892;2024-02-14T04:43:23;9.50;;;2.70;;
20101;SDS011;10210;52.284;9.892;2024-02-14T04:45:51;10.07;;;2.93;;
20101;SDS011;10210;52.284;9.892;2024-02-14T04:48:18;8.40;;;3.00;;
20101;SDS011;10210;52.284;9.892;2024-02-14T04:50:44;8.67;;;2.93;;
20101;SDS011;10210;52.284;9.892;2024-02-14T04:53:10;11.40;;;3.17;;
20101;SDS011;10210;52.284;9.892;2024-02-14T04:55:35;10.17;;;3.17;;
20101;SDS011;10210;52.284;9.892;2024-02-14T04:58:01;11.17;;;3.20;;
20101;SDS011;10210;52.284;9.892;2024-02-14T05:00:27;9.37;;;3.20;;
20101;SDS011;10210;52.284;9.892;2024-02-14T05:02:53;9.97;;;3.00;;
20101;SDS011;10210;52.284;9.892;2024-02-14T05:05:18;8.87;;;2.93;;
20101;SDS011;10210;52.284;9.892;2024-02-14T05:07:45;8.50;;;2.90;;
20101;SDS011;10210;52.284;9.892;2024-02-14T05:10:11;9.30;;;3.10;;
20101;SDS011;10210;52.284;9.892;2024-02-14T05:12:37;9.20;;;3.17;;
20101;SDS011;10210;52.284;9.892;2024-02-14T05:15:03;8.73;;;3.10;;
20101;SDS011;10210;52.284;9.892;2024-02-14T05:17:30;11.30;;;3.40;;
20101;SDS011;10210;52.284;9.892;2024-02-14T05:19:56;8.10;;;3.07;;
20101;SDS011;10210;52.284;9.892;2024-02-14T05:22:21;10.03;;;3.40;;
20101;SDS011;10210;52.284;9.892;2024-02-14T05:24:48;8.37;;;3.20;;
20101;SDS011;10210;52.284;9.892;2024-02-14T05:27:13;7.77;;;2.83;;
20101;SDS011;10210;52.284;9.892;2024-02-14T05:29:39;7.43;;;2.77;;
20101;SDS011;10210;52.284;9.892;2024-02-14T05:32:05;10.00;;;2.90;;
20101;SDS011;10210;52.284;9.892;2024-02-14T05:34:31;8.60;;;2.97;;
20101;SDS011;10210;52.284;9.892;2024-02-14T05:36:56;8.17;;;2.90;;
20101;SDS011;10210;52.284;9.892;2024-02-14T05:39:22;8.17;;;2.83;;
20101;SDS011;10210;52.284;9.892;2024-02-14T05:41:48;9.30;;;2.63;;
20101;SDS011;10210;52.284;9.892;2024-02-14T05:44:14;9.33;;;2.90;;
20101;SDS011;10210;52.284;9.892;2024-02-14T05:46:40;8.33;;;3.13;;
20101;SDS011;10210;52.284;9.892;2024-02-14T05:49:06;8.13;;;3.27;;
20101;SDS011;10210;52.284;9.892;2024-02-14T05:51:32;9.27;;;3.10;;
20101;SDS011;10210;52.284;9.892;2024-02-14T05:53:57;8.00;;;2.90;;
20101;SDS011;10210;52.284;9.892;2024-02-14T05:56:23;8.60;;;2.83;;
20101;SDS011;10210;52.284;9.892;2024-02-14T05:58:49;10.30;;;2.97;;
20101;SDS011;10210;52.284;9.892;2024-02-14T06:01:15;9.57;;;3.10;;
20101;SDS011;10210;52.284;9.892;2024-02-14T06:03:41;7.83;;;2.90;;
20101;SDS011;10210;52.284;9.892;2024-02-14T06:06:09;9.43;;;2.97;;
20101;SDS011;10210;52.284;9.892;2024-02-14T06:08:34;9.60;;;3.00;;
20101;SDS011;10210;52.284;9.892;2024-02-14T06:11:00;8.87;;;3.00;;
20101;SDS011;10210;52.284;9.892;2024-02-14T06:13:26;9.53;;;3.13;;
20101;SDS011;10210;52.284;9.892;2024-02-14T06:15:52;8.67;;;2.77;;
20101;SDS011;10210;52.284;9.892;2024-02-14T06:18:17;8.73;;;2.97;;
20101;SDS011;10210;52.284;9.892;2024-02-14T06:20:43;11.83;;;3.00;;
20101;SDS011;10210;52.284;9.892;2024-02-14T06:23:09;7.43;;;2.80;;
20101;SDS011;10210;52.284;9.892;2024-02-14T06:25:34;7.67;;;2.77;;
20101;SDS011;10210;52.284;9.892;2024-02-14T06:28:00;7.40;;;2.80;;
20101;SDS011;10210;52.284;9.892;2024-02-14T06:30:26;9.67;;;3.00;;
20101;SDS011;10210;52.284;9.892;2024-02-14T06:32:52;8.43;;;2.80;;
20101;SDS011;10210;52.284;9.892;2024-02-14T06:35:18;11.47;;;2.90;;
20101;SDS011;10210;52.284;9.892;2024-02-14T06:37:45;7.40;;;2.80;;
20101;SDS011;10210;52.284;9.892;2024-02-14T06:40:11;7.63;;;2.97;;
20101;SDS011;10210;52.284;9.892;2024-02-14T06:42:37;8.43;;;3.03;;
20101;SDS011;10210;52.284;9.892;2024-02-14T06:45:05;7.73;;;2.57;;
20101;SDS011;10210;52.284;9.892;2024-02-14T06:47:32;6.63;;;2.47;;
20101;SDS011;10210;52.284;9.892;2024-02-14T06:49:57;8.30;;;2.83;;
20101;SDS011;10210;52.284;9.892;2024-02-14T06:52:23;6.53;;;2.60;;
20101;SDS011;10210;52.284;9.892;2024-02-14T06:54:49;6.63;;;2.63;;
20101;SDS011;10210;52.284;9.892;2024-02-14T06:57:15;9.07;;;2.70;;
20101;SDS011;10210;52.284;9.892;2024-02-14T06:59:41;6.40;;;2.60;;
20101;SDS011;10210;52.284;9.892;2024-02-14T07:02:07;8.37;;;2.50;;
20101;SDS011;10210;52.284;9.892;2024-02-14T07:04:34;7.60;;;2.33;;
20101;SDS011;10210;52.284;9.892;2024-02-14T07:07:00;6.20;;;2.80;;
20101;SDS011;10210;52.284;9.892;2024-02-14T07:09:25;6.20;;;2.50;;
20101;SDS011;10210;52.284;9.892;2024-02-14T07:11:51;10.63;;;3.23;;
20101;SDS011;10210;52.284;9.892;2024-02-14T07:14:22;6.40;;;2.70;;
20101;SDS011;10210;52.284;9.892;2024-02-14T07:16:48;8.27;;;2.67;;
20101;SDS011;10210;52.284;9.892;2024-02-14T07:19:14;6.87;;;2.60;;
20101;SDS011;10210;52.284;9.892;2024-02-14T07:21:39;7.57;;;2.80;;
20101;SDS011;10210;52.284;9.892;2024-02-14T07:24:05;9.07;;;2.83;;
20101;SDS011;10210;52.284;9.892;2024-02-14T07:26:31;7.00;;;2.57;;
20101;SDS011;10210;52.284;9.892;2024-02-14T07:28:56;6.63;;;2.40;;
20101;SDS011;10210;52.284;9.892;2024-02-14T07:31:22;9.00;;;2.60;;
20101;SDS011;10210;52.284;9.892;2024-02-14T07:33:48;8.97;;;2.37;;
20101;SDS011;10210;52.284;9.892;2024-02-14T07:36:18;6.83;;;2.20;;
20101;SDS011;10210;52.284;9.892;2024-02-14T07:38:44;8.40;;;2.47;;
20101;SDS011;10210;52.284;9.892;2024-02-14T07:41:09;5.67;;;2.43;;
20101;SDS011;10210;52.284;9.892;2024-02-14T07:43:35;5.67;;;2.10;;
20101;SDS011;10210;52.284;9.892;2024-02-14T07:46:01;6.90;;;2.47;;
20101;SDS011;10210;52.284;9.892;2024-02-14T07:48:26;7.67;;;2.60;;
20101;SDS011;10210;52.284;9.892;2024-02-14T07:50:52;7.27;;;2.43;;
20101;SDS011;10210;52.284;9.892;2024-02-14T07:53:18;6.20;;;2.50;;
20101;SDS011;10210;52.284;9.892;2024-02-14T07:55:43;7.37;;;2.30;;
20101;SDS011;10210;52.284;9.892;2024-02-14T07:58:09;6.33;;;2.30;;
20101;SDS011;10210;52.284;9.892;2024-02-14T08:00:35;5.43;;;2.43;;
20101;SDS011;10210;52.284;9.892;2024-02-14T08:03:01;7.07;;;2.50;;
20101;SDS011;10210;52.284;9.892;2024-02-14T08:05:29;7.03;;;2.07;;
20101;SDS011;10210;52.284;9.892;2024-02-14T08:07:55;5.17;;;2.20;;
20101;SDS011;10210;52.284;9.892;2024-02-14T08:10:20;7.07;;;2.40;;
20101;SDS011;10210;52.284;9.892;2024-02-14T08:12:46;6.43;;;2.40;;
20101;SDS011;10210;52.284;9.892;2024-02-14T08:15:12;6.10;;;1.90;;
20101;SDS011;10210;52.284;9.892;2024-02-14T08:17:38;5.47;;;2.40;;
20101;SDS011;10210;52.284;9.892;2024-02-14T08:20:05;4.97;;;2.00;;
20101;SDS011;10210;52.284;9.892;2024-02-14T08:22:31;5.87;;;2.10;;
20101;SDS011;10210;52.284;9.892;2024-02-14T08:24:57;6.03;;;2.10;;
20101;SDS011;10210;52.284;9.892;2024-02-14T08:27:24;7.23;;;2.00;;
20101;SDS011;10210;52.284;9.892;2024-02-14T08:29:51;4.63;;;1.87;;
20101;SDS011;10210;52.284;9.892;2024-02-14T08:32:17;6.27;;;1.90;;
20101;SDS011;10210;52.284;9.892;2024-02-14T08:34:42;7.43;;;1.90;;
20101;SDS011;10210;52.284;9.892;2024-02-14T08:37:09;4.77;;;1.73;;
20101;SDS011;10210;52.284;9.892;2024-02-14T08:39:35;6.23;;;2.03;;
20101;SDS011;10210;52.284;9.892;2024-02-14T08:42:01;5.23;;;2.20;;
20101;SDS011;10210;52.284;9.892;2024-02-14T08:44:32;6.47;;;2.50;;
20101;SDS011;10210;52.284;9.892;2024-02-14T08:46:59;6.03;;;1.80;;
20101;SDS011;10210;52.284;9.892;2024-02-14T08:49:25;4.27;;;1.87;;
20101;SDS011;10210;52.284;9.892;2024-02-14T08:51:51;3.90;;;1.70;;
20101;SDS011;10210;52.284;9.892;2024-02-14T08:54:16;5.07;;;1.90;;
20101;SDS011;10210;52.284;9.892;2024-02-14T08:56:42;3.90;;;2.00;;
20101;SDS011;10210;52.284;9.892;2024-02-14T08:59:09;4.13;;;2.00;;
20101;SDS011;10210;52.284;9.892;2024-02-14T09:01:35;4.83;;;2.10;;
20101;SDS011;10210;52.284;9.892;2024-02-14T09:04:02;3.87;;;1.83;;
20101;SDS011;10210;52.284;9.892;2024-02-14T09:06:28;4.97;;;2.00;;
20101;SDS011;10210;52.284;9.892;2024-02-14T09:08:54;4.60;;;1.90;;
20101;SDS011;10210;52.284;9.892;2024-02-14T09:11:20;5.13;;;2.10;;
20101;SDS011;10210;52.284;9.892;2024-02-14T09:13:47;3.80;;;1.90;;
20101;SDS011;10210;52.284;9.892;2024-02-14T09:16:15;6.80;;;2.17;;
20101;SDS011;10210;52.284;9.892;2024-02-14T09:18:41;5.50;;;2.50;;
20101;SDS011;10210;52.284;9.892;2024-02-14T09:21:07;6.60;;;2.53;;
20101;SDS011;10210;52.284;9.892;2024-02-14T09:23:34;6.67;;;2.70;;
20101;SDS011;10210;52.284;9.892;2024-02-14T09:26:06;8.37;;;2.73;;
20101;SDS011;10210;52.284;9.892;2024-02-14T09:28:32;6.50;;;2.77;;
20101;SDS011;10210;52.284;9.892;2024-02-14T09:30:59;7.93;;;3.07;;
20101;SDS011;10210;52.284;9.892;2024-02-14T09:33:26;8.23;;;3.13;;
20101;SDS011;10210;52.284;9.892;2024-02-14T09:35:52;8.03;;;3.30;;
20101;SDS011;10210;52.284;9.892;2024-02-14T09:38:18;8.67;;;3.60;;
20101;SDS011;10210;52.284;9.892;2024-02-14T09:40:43;10.77;;;3.77;;
20101;SDS011;10210;52.284;9.892;2024-02-14T09:43:28;9.73;;;3.97;;
20101;SDS011;10210;52.284;9.892;2024-02-14T09:46:02;11.10;;;4.30;;
20101;SDS011;10210;52.284;9.892;2024-02-14T09:48:29;10.93;;;4.10;;
20101;SDS011;10210;52.284;9.892;2024-02-14T09:50:56;9.80;;;4.00;;
20101;SDS011;10210;52.284;9.892;2024-02-14T09:53:22;11.03;;;3.93;;
20101;SDS011;10210;52.284;9.892;2024-02-14T09:55:49;9.23;;;3.80;;
20101;SDS011;10210;52.284;9.892;2024-02-14T09:58:15;9.37;;;3.57;;
20101;SDS011;10210;52.284;9.892;2024-02-14T10:00:42;8.93;;;3.67;;
20101;SDS011;10210;52.284;9.892;2024-02-14T10:03:09;9.10;;;3.93;;
20101;SDS011;10210;52.284;9.892;2024-02-14T10:05:35;10.87;;;4.10;;
20101;SDS011;10210;52.284;9.892;2024-02-14T10:08:01;8.93;;;3.73;;
20101;SDS011;10210;52.284;9.892;2024-02-14T10:10:28;9.47;;;3.70;;
20101;SDS011;10210;52.284;9.892;2024-02-14T10:12:54;9.77;;;3.90;;
20101;SDS011;10210;52.284;9.892;2024-02-14T10:15:21;11.33;;;4.20;;
20101;SDS011;10210;52.284;9.892;2024-02-14T10:17:47;10.53;;;4.13;;
20101;SDS011;10210;52.284;9.892;2024-02-14T10:20:16;10.30;;;4.30;;
20101;SDS011;10210;52.284;9.892;2024-02-14T10:22:43;10.50;;;4.23;;
20101;SDS011;10210;52.284;9.892;2024-02-14T10:25:10;11.50;;;4.43;;
20101;SDS011;10210;52.284;9.892;2024-02-14T10:27:37;10.30;;;3.93;;
20101;SDS011;10210;52.284;9.892;2024-02-14T10:30:05;10.07;;;4.20;;
20101;SDS011;10210;52.284;9.892;2024-02-14T10:32:36;10.93;;;4.37;;
20101;SDS011;10210;52.284;9.892;2024-02-14T10:35:06;11.97;;;4.67;;
20101;SDS011;10210;52.284;9.892;2024-02-14T10:37:34;10.13;;;4.33;;
20101;SDS011;10210;52.284;9.892;2024-02-14T10:40:03;10.17;;;4.13;;
20101;SDS011;10210;52.284;9.892;2024-02-14T10:42:31;11.53;;;4.50;;
20101;SDS011;10210;52.284;9.892;2024-02-14T10:44:58;9.73;;;4.00;;
20101;SDS011;10210;52.284;9.892;2024-02-14T10:47:29;11.27;;;4.63;;
20101;SDS011;10210;52.284;9.892;2024-02-14T10:50:00;10.00;;;4.17;;
20101;SDS011;10210;52.284;9.892;2024-02-14T10:52:32;10.23;;;3.87;;
20101;SDS011;10210;52.284;9.892;2024-02-14T10:55:01;9.60;;;4.10;;
20101;SDS011;10210;52.284;9.892;2024-02-14T10:57:30;9.17;;;3.80;;
20101;SDS011;10210;52.284;9.892;2024-02-14T10:59:57;10.00;;;4.13;;
20101;SDS011;10210;52.284;9.892;2024-02-14T11:02:28;9.53;;;3.97;;
20101;SDS011;10210;52.284;9.892;2024-02-14T11:04:55;9.37;;;3.90;;
20101;SDS011;10210;52.284;9.892;2024-02-14T11:07:21;11.07;;;4.27;;
20101;SDS011;10210;52.284;9.892;2024-02-14T11:12:37;9.70;;;4.40;;
20101;SDS011;10210;52.284;9.892;2024-02-14T11:15:10;9.13;;;3.90;;
20101;SDS011;10210;52.284;9.892;2024-02-14T11:17:45;9.77;;;3.93;;
20101;SDS011;10210;52.284;9.892;2024-02-14T11:20:35;9.13;;;3.73;;
20101;SDS011;10210;52.284;9.892;2024-02-14T11:23:02;11.23;;;4.20;;
20101;SDS011;10210;52.284;9.892;2024-02-14T11:25:31;9.43;;;4.03;;
20101;SDS011;10210;52.284;9.892;2024-02-14T11:27:59;9.97;;;4.10;;
20101;SDS011;10210;52.284;9.892;2024-02-14T11:30:39;10.60;;;4.53;;
20101;SDS011;10210;52.284;9.892;2024-02-14T11:33:09;9.83;;;4.27;;
20101;SDS011;10210;52.284;9.892;2024-02-14T11:35:53;12.10;;;4.47;;
20101;SDS011;10210;52.284;9.892;2024-02-14T11:38:20;11.47;;;4.70;;
20101;SDS011;10210;52.284;9.892;2024-02-14T11:40:50;9.33;;;4.00;;
20101;SDS011;10210;52.284;9.892;2024-02-14T11:43:20;9.30;;;4.00;;
20101;SDS011;10210;52.284;9.892;2024-02-14T11:45:46;9.23;;;4.00;;
20101;SDS011;10210;52.284;9.892;2024-02-14T11:48:14;10.50;;;4.10;;
20101;SDS011;10210;52.284;9.892;2024-02-14T11:50:43;8.83;;;4.10;;
20101;SDS011;10210;52.284;9.892;2024-02-14T11:53:10;11.90;;;4.30;;
20101;SDS011;10210;52.284;9.892;2024-02-14T11:55:38;10.57;;;4.10;;
20101;SDS011;10210;52.284;9.892;2024-02-14T11:58:15;10.43;;;4.03;;
20101;SDS011;10210;52.284;9.892;2024-02-14T12:00:43;11.27;;;4.37;;
20101;SDS011;10210;52.284;9.892;2024-02-14T12:03:15;10.17;;;4.20;;
20101;SDS011;10210;52.284;9.892;2024-02-14T12:05:45;10.03;;;4.17;;
20101;SDS011;10210;52.284;9.892;2024-02-14T12:08:13;10.13;;;4.00;;
20101;SDS011;10210;52.284;9.892;2024-02-14T12:10:42;11.67;;;4.50;;
20101;SDS011;10210;52.284;9.892;2024-02-14T12:13:13;11.27;;;4.40;;
20101;SDS011;10210;52.284;9.892;2024-02-14T12:15:45;8.87;;;3.80;;
20101;SDS011;10210;52.284;9.892;2024-02-14T12:18:14;9.80;;;4.00;;
20101;SDS011;10210;52.284;9.892;2024-02-14T12:20:45;10.57;;;4.10;;
20101;SDS011;10210;52.284;9.892;2024-02-14T12:23:14;9.73;;;4.03;;
20101;SDS011;10210;52.284;9.892;2024-02-14T12:25:45;9.63;;;4.30;;
20101;SDS011;10210;52.284;9.892;2024-02-14T12:28:15;9.90;;;4.17;;
20101;SDS011;10210;52.284;9.892;2024-02-14T12:30:49;11.57;;;4.40;;
20101;SDS011;10210;52.284;9.892;2024-02-14T12:33:22;10.13;;;4.10;;
20101;SDS011;10210;52.284;9.892;2024-02-14T12:35:53;10.73;;;4.17;;
20101;SDS011;10210;52.284;9.892;2024-02-14T12:38:21;9.43;;;4.20;;
20101;SDS011;10210;52.284;9.892;2024-02-14T12:40:48;10.27;;;4.27;;
20101;SDS011;10210;52.284;9.892;2024-02-14T12:43:14;11.17;;;4.80;;
20101;SDS011;10210;52.284;9.892;2024-02-14T12:45:41;9.70;;;4.10;;
20101;SDS011;10210;52.284;9.892;2024-02-14T12:48:07;9.67;;;4.20;;
20101;SDS011;10210;52.284;9.892;2024-02-14T12:50:37;10.30;;;4.23;;
20101;SDS011;10210;52.284;9.892;2024-02-14T12:53:03;9.77;;;4.30;;
20101;SDS011;10210;52.284;9.892;2024-02-14T12:55:30;9.97;;;4.20;;
20101;SDS011;10210;52.284;9.892;2024-02-14T12:57:56;10.63;;;4.50;;
20101;SDS011;10210;52.284;9.892;2024-02-14T13:00:22;10.10;;;4.20;;
20101;SDS011;10210;52.284;9.892;2024-02-14T13:02:49;9.43;;;3.97;;
20101;SDS011;10210;52.284;9.892;2024-02-14T13:05:15;9.20;;;3.90;;
20101;SDS011;10210;52.284;9.892;2024-02-14T13:07:42;8.73;;;3.70;;
20101;SDS011;10210;52.284;9.892;2024-02-14T13:10:09;9.23;;;4.00;;
20101;SDS011;10210;52.284;9.892;2024-02-14T13:12:39;9.83;;;4.07;;
20101;SDS011;10210;52.284;9.892;2024-02-14T13:15:08;8.53;;;3.53;;
20101;SDS011;10210;52.284;9.892;2024-02-14T13:17:35;8.80;;;4.07;;
20101;SDS011;10210;52.284;9.892;2024-02-14T13:20:01;10.87;;;4.17;;
20101;SDS011;10210;52.284;9.892;2024-02-14T13:22:26;10.73;;;3.90;;
20101;SDS011;10210;52.284;9.892;2024-02-14T13:24:52;9.30;;;3.90;;
20101;SDS011;10210;52.284;9.892;2024-02-14T13:27:18;8.27;;;3.43;;
20101;SDS011;10210;52.284;9.892;2024-02-14T13:29:46;9.93;;;4.13;;
20101;SDS011;10210;52.284;9.892;2024-02-14T13:32:12;13.57;;;5.57;;
20101;SDS011;10210;52.284;9.892;2024-02-14T13:34:38;14.37;;;5.97;;
20101;SDS011;10210;52.284;9.892;2024-02-14T13:37:05;11.00;;;4.93;;
20101;SDS011;10210;52.284;9.892;2024-02-14T13:39:31;7.53;;;3.40;;
20101;SDS011;10210;52.284;9.892;2024-02-14T13:41:57;8.27;;;3.53;;
20101;SDS011;10210;52.284;9.892;2024-02-14T13:44:24;7.33;;;3.10;;
20101;SDS011;10210;52.284;9.892;2024-02-14T13:46:50;7.67;;;3.50;;
20101;SDS011;10210;52.284;9.892;2024-02-14T13:49:17;7.03;;;3.30;;
20101;SDS011;10210;52.284;9.892;2024-02-14T13:51:47;6.20;;;2.83;;
20101;SDS011;10210;52.284;9.892;2024-02-14T13:54:17;9.90;;;3.00;;
20101;SDS011;10210;52.284;9.892;2024-02-14T13:56:44;7.03;;;2.60;;
20101;SDS011;10210;52.284;9.892;2024-02-14T13:59:10;4.70;;;2.40;;
20101;SDS011;10210;52.284;9.892;2024-02-14T14:01:36;3.93;;;2.17;;
20101;SDS011;10210;52.284;9.892;2024-02-14T14:04:02;4.70;;;2.50;;
20101;SDS011;10210;52.284;9.892;2024-02-14T14:06:28;5.03;;;2.53;;
20101;SDS011;10210;52.284;9.892;2024-02-14T14:08:55;5.77;;;2.50;;
20101;SDS011;10210;52.284;9.892;2024-02-14T14:11:21;7.10;;;2.77;;
20101;SDS011;10210;52.284;9.892;2024-02-14T14:13:47;6.20;;;2.53;;
20101;SDS011;10210;52.284;9.892;2024-02-14T14:16:12;4.67;;;2.37;;
20101;SDS011;10210;52.284;9.892;2024-02-14T14:18:39;4.73;;;2.43;;
20101;SDS011;10210;52.284;9.892;2024-02-14T14:21:05;5.13;;;2.40;;
20101;SDS011;10210;52.284;9.892;2024-02-14T14:23:31;7.13;;;2.53;;
20101;SDS011;10210;52.284;9.892;2024-02-14T14:25:58;4.03;;;2.30;;
20101;SDS011;10210;52.284;9.892;2024-02-14T14:28:25;5.57;;;2.50;;
20101;SDS011;10210;52.284;9.892;2024-02-14T14:30:51;6.00;;;2.50;;
20101;SDS011;10210;52.284;9.892;2024-02-14T14:33:18;5.13;;;2.27;;
20101;SDS011;10210;52.284;9.892;2024-02-14T14:35:44;5.47;;;2.30;;
20101;SDS011;10210;52.284;9.892;2024-02-14T14:38:10;4.93;;;2.53;;
20101;SDS011;10210;52.284;9.892;2024-02-14T14:40:36;4.00;;;2.30;;
20101;SDS011;10210;52.284;9.892;2024-02-14T14:43:02;4.90;;;2.50;;
20101;SDS011;10210;52.284;9.892;2024-02-14T14:45:29;4.03;;;2.10;;